sensor_id;sensor_type;location;lat;lon;timestamp;pressure;altitude;pressure_sealevel;temperature;humidity
56518;BME280;42419;48.760;2.322;2023-03-14T00:01:49;98710.19;;;22.25;39.88
56518;BME280;42419;48.760;2.322;2023-03-14T00:04:14;98720.06;;;22.24;39.98
56518;BME280;42419;48.760;2.322;2023-03-14T00:06:39;98683.53;;;22.12;39.69
56518;BME280;42419;48.760;2.322;2023-03-14T00:09:05;98706.06;;;22.21;39.92
56518;BME280;42419;48.760;2.322;2023-03-14T00:11:30;98700.53;;;22.22;39.74
56518;BME280;42419;48.760;2.322;2023-03-14T00:13:56;98693.72;;;22.18;39.50
56518;BME280;42419;48.760;2.322;2023-03-14T00:16:21;98600.97;;;21.73;39.36
56518;BME280;42419;48.760;2.322;2023-03-14T00:18:47;98705.09;;;22.22;39.45
56518;BME280;42419;48.760;2.322;2023-03-14T00:21:12;98676.56;;;22.21;39.30
56518;BME280;42419;48.760;2.322;2023-03-14T00:23:39;98609.72;;;21.75;39.18
56518;BME280;42419;48.760;2.322;2023-03-14T00:26:08;98681.06;;;22.20;38.97
56518;BME280;42419;48.760;2.322;2023-03-14T00:28:34;98619.56;;;21.85;38.89
56518;BME280;42419;48.760;2.322;2023-03-14T00:31:02;98604.34;;;21.75;38.77
56518;BME280;42419;48.760;2.322;2023-03-14T00:33:27;98673.13;;;22.19;38.88
56518;BME280;42419;48.760;2.322;2023-03-14T00:35:57;98658.41;;;22.13;38.81
56518;BME280;42419;48.760;2.322;2023-03-14T00:38:23;98643.09;;;22.04;38.70
56518;BME280;42419;48.760;2.322;2023-03-14T00:40:50;98647.72;;;22.02;38.77
56518;BME280;42419;48.760;2.322;2023-03-14T00:43:16;98666.06;;;22.18;38.52
56518;BME280;42419;48.760;2.322;2023-03-14T00:45:41;98666.06;;;22.18;38.55
56518;BME280;42419;48.760;2.322;2023-03-14T00:48:06;98666.06;;;22.18;38.51
56518;BME280;42419;48.760;2.322;2023-03-14T00:50:31;98669.88;;;22.15;38.53
56518;BME280;42419;48.760;2.322;2023-03-14T00:52:57;98654.38;;;22.19;38.46
56518;BME280;42419;48.760;2.322;2023-03-14T00:55:23;98638.34;;;22.08;38.58
56518;BME280;42419;48.760;2.322;2023-03-14T00:57:49;98655.34;;;22.18;38.43
56518;BME280;42419;48.760;2.322;2023-03-14T01:00:14;98659.75;;;22.19;38.24
56518;BME280;42419;48.760;2.322;2023-03-14T01:02:39;98649.97;;;22.18;38.14
56518;BME280;42419;48.760;2.322;2023-03-14T01:05:05;98573.56;;;21.69;37.99
56518;BME280;42419;48.760;2.322;2023-03-14T01:07:30;98657.06;;;22.19;38.20
56518;BME280;42419;48.760;2.322;2023-03-14T01:09:56;98648.69;;;22.12;38.03
56518;BME280;42419;48.760;2.322;2023-03-14T01:12:21;98566.88;;;21.64;37.90
56518;BME280;42419;48.760;2.322;2023-03-14T01:14:46;98657.06;;;22.19;37.89
56518;BME280;42419;48.760;2.322;2023-03-14T01:17:11;98657.91;;;22.19;37.64
56518;BME280;42419;48.760;2.322;2023-03-14T01:19:37;98592.03;;;21.83;37.80
56518;BME280;42419;48.760;2.322;2023-03-14T01:22:03;98645.75;;;22.15;37.71
56518;BME280;42419;48.760;2.322;2023-03-14T01:24:28;98561.63;;;21.62;37.72
56518;BME280;42419;48.760;2.322;2023-03-14T01:26:53;98666.81;;;22.20;37.97
56518;BME280;42419;48.760;2.322;2023-03-14T01:29:19;98658.03;;;22.18;37.92
56518;BME280;42419;48.760;2.322;2023-03-14T01:31:44;98656.09;;;22.20;37.74
56518;BME280;42419;48.760;2.322;2023-03-14T01:34:09;98645.38;;;22.20;37.55
56518;BME280;42419;48.760;2.322;2023-03-14T01:36:35;98645.38;;;22.20;37.41
56518;BME280;42419;48.760;2.322;2023-03-14T01:39:00;98665.84;;;22.21;37.52
56518;BME280;42419;48.760;2.322;2023-03-14T01:41:26;98568.56;;;21.76;37.49
56518;BME280;42419;48.760;2.322;2023-03-14T01:43:51;98612.50;;;21.95;37.27
56518;BME280;42419;48.760;2.322;2023-03-14T01:46:43;98659.03;;;22.17;37.12
56518;BME280;42419;48.760;2.322;2023-03-14T01:49:29;98636.25;;;22.11;37.50
56518;BME280;42419;48.760;2.322;2023-03-14T01:52:11;98661.44;;;22.20;37.15
56518;BME280;42419;48.760;2.322;2023-03-14T01:54:44;98661.44;;;22.20;37.22
56518;BME280;42419;48.760;2.322;2023-03-14T01:57:17;98663.38;;;22.18;37.17
56518;BME280;42419;48.760;2.322;2023-03-14T02:00:04;98663.28;;;22.19;37.05
56518;BME280;42419;48.760;2.322;2023-03-14T02:02:36;98670.47;;;22.19;36.92
56518;BME280;42419;48.760;2.322;2023-03-14T02:05:03;98670.47;;;22.19;36.90
56518;BME280;42419;48.760;2.322;2023-03-14T02:07:47;98668.63;;;22.19;37.13
56518;BME280;42419;48.760;2.322;2023-03-14T02:10:16;98674.97;;;22.18;37.02
56518;BME280;42419;48.760;2.322;2023-03-14T02:12:45;98659.41;;;22.12;37.18
56518;BME280;42419;48.760;2.322;2023-03-14T02:15:11;98673.13;;;22.19;37.19
56518;BME280;42419;48.760;2.322;2023-03-14T02:17:37;98663.28;;;22.19;37.28
56518;BME280;42419;48.760;2.322;2023-03-14T02:22:37;98672.91;;;22.22;36.79
56518;BME280;42419;48.760;2.322;2023-03-14T02:27:34;98664.00;;;22.21;37.04
56518;BME280;42419;48.760;2.322;2023-03-14T02:30:02;98664.88;;;22.22;36.78
56518;BME280;42419;48.760;2.322;2023-03-14T02:32:30;98666.69;;;22.21;36.92
56518;BME280;42419;48.760;2.322;2023-03-14T02:34:59;98669.38;;;22.21;37.08
56518;BME280;42419;48.760;2.322;2023-03-14T02:40:14;98656.81;;;22.22;36.87
56518;BME280;42419;48.760;2.322;2023-03-14T02:42:39;98659.50;;;22.22;36.93
56518;BME280;42419;48.760;2.322;2023-03-14T02:47:34;98655.81;;;22.23;36.90
56518;BME280;42419;48.760;2.322;2023-03-14T02:50:09;98653.28;;;22.21;36.65
56518;BME280;42419;48.760;2.322;2023-03-14T02:52:35;98645.25;;;22.21;36.94
56518;BME280;42419;48.760;2.322;2023-03-14T02:55:00;98633.31;;;22.14;36.84
56518;BME280;42419;48.760;2.322;2023-03-14T02:57:25;98579.16;;;21.88;36.86
56518;BME280;42419;48.760;2.322;2023-03-14T02:59:51;98647.94;;;22.21;36.62
56518;BME280;42419;48.760;2.322;2023-03-14T03:02:16;98659.38;;;22.23;36.81
56518;BME280;42419;48.760;2.322;2023-03-14T03:04:42;98661.19;;;22.23;36.66
56518;BME280;42419;48.760;2.322;2023-03-14T03:07:07;98582.94;;;21.75;36.38
56518;BME280;42419;48.760;2.322;2023-03-14T03:09:33;98576.72;;;21.74;36.54
56518;BME280;42419;48.760;2.322;2023-03-14T03:11:58;98653.28;;;22.21;36.67
56518;BME280;42419;48.760;2.322;2023-03-14T03:14:24;98660.22;;;22.24;36.39
56518;BME280;42419;48.760;2.322;2023-03-14T03:16:49;98670.94;;;22.24;36.47
56518;BME280;42419;48.760;2.322;2023-03-14T03:19:14;98662.03;;;22.23;36.27
56518;BME280;42419;48.760;2.322;2023-03-14T03:21:41;98667.41;;;22.23;36.66
56518;BME280;42419;48.760;2.322;2023-03-14T03:24:06;98666.91;;;22.18;36.30
56518;BME280;42419;48.760;2.322;2023-03-14T03:26:36;98671.91;;;22.23;36.38
56518;BME280;42419;48.760;2.322;2023-03-14T03:29:02;98670.94;;;22.24;36.35
56518;BME280;42419;48.760;2.322;2023-03-14T03:31:27;98670.09;;;22.23;36.49
56518;BME280;42419;48.760;2.322;2023-03-14T03:33:53;98675.44;;;22.23;36.32
56518;BME280;42419;48.760;2.322;2023-03-14T03:36:23;98670.09;;;22.23;36.27
56518;BME280;42419;48.760;2.322;2023-03-14T03:38:48;98674.25;;;22.16;36.29
56518;BME280;42419;48.760;2.322;2023-03-14T03:41:14;98675.44;;;22.23;36.60
56518;BME280;42419;48.760;2.322;2023-03-14T03:43:39;98688.00;;;22.23;36.21
56518;BME280;42419;48.760;2.322;2023-03-14T03:46:06;98677.28;;;22.23;36.32
56518;BME280;42419;48.760;2.322;2023-03-14T03:48:32;98681.66;;;22.24;36.16
56518;BME280;42419;48.760;2.322;2023-03-14T03:50:57;98606.66;;;21.79;36.35
56518;BME280;42419;48.760;2.322;2023-03-14T03:53:23;98689.72;;;22.24;36.27
56518;BME280;42419;48.760;2.322;2023-03-14T03:55:48;98685.84;;;22.17;36.25
56518;BME280;42419;48.760;2.322;2023-03-14T03:58:13;98680.31;;;22.18;36.37
56518;BME280;42419;48.760;2.322;2023-03-14T04:00:39;98608.63;;;21.77;36.37
56518;BME280;42419;48.760;2.322;2023-03-14T04:03:04;98686.91;;;22.25;36.34
56518;BME280;42419;48.760;2.322;2023-03-14T04:05:30;98695.81;;;22.26;36.23
56518;BME280;42419;48.760;2.322;2023-03-14T04:07:55;98698.50;;;22.26;36.06
56518;BME280;42419;48.760;2.322;2023-03-14T04:10:21;98630.53;;;21.82;36.29
56518;BME280;42419;48.760;2.322;2023-03-14T04:12:46;98707.50;;;22.25;36.07
56518;BME280;42419;48.760;2.322;2023-03-14T04:15:11;98707.50;;;22.25;36.30
56518;BME280;42419;48.760;2.322;2023-03-14T04:17:37;98637.84;;;21.80;36.50
56518;BME280;42419;48.760;2.322;2023-03-14T04:20:03;98708.47;;;22.24;36.77
56518;BME280;42419;48.760;2.322;2023-03-14T04:22:29;98716.50;;;22.24;36.03
56518;BME280;42419;48.760;2.322;2023-03-14T04:24:54;98717.38;;;22.24;36.34
56518;BME280;42419;48.760;2.322;2023-03-14T04:27:20;98707.28;;;22.17;36.18
56518;BME280;42419;48.760;2.322;2023-03-14T04:29:45;98725.41;;;22.24;36.09
56518;BME280;42419;48.760;2.322;2023-03-14T04:32:10;98733.47;;;22.24;36.13
56518;BME280;42419;48.760;2.322;2023-03-14T04:34:36;98739.78;;;22.23;36.07
56518;BME280;42419;48.760;2.322;2023-03-14T04:37:01;98661.94;;;21.80;36.00
56518;BME280;42419;48.760;2.322;2023-03-14T04:39:26;98740.63;;;22.24;36.03
56518;BME280;42419;48.760;2.322;2023-03-14T04:41:52;98734.31;;;22.14;36.23
56518;BME280;42419;48.760;2.322;2023-03-14T04:44:17;98746.75;;;22.15;36.31
56518;BME280;42419;48.760;2.322;2023-03-14T04:46:45;98758.56;;;22.23;36.06
56518;BME280;42419;48.760;2.322;2023-03-14T04:49:11;98711.41;;;21.87;36.23
56518;BME280;42419;48.760;2.322;2023-03-14T04:51:36;98709.56;;;21.77;36.38
56518;BME280;42419;48.760;2.322;2023-03-14T04:54:01;98820.56;;;22.19;36.19
56518;BME280;42419;48.760;2.322;2023-03-14T04:56:27;98761.53;;;21.74;35.92
56518;BME280;42419;48.760;2.322;2023-03-14T04:58:52;98853.22;;;22.24;36.32
56518;BME280;42419;48.760;2.322;2023-03-14T05:01:18;98863.47;;;22.19;36.23
56518;BME280;42419;48.760;2.322;2023-03-14T05:03:43;98884.44;;;22.25;36.24
56518;BME280;42419;48.760;2.322;2023-03-14T05:06:08;98878.56;;;22.20;36.20
56518;BME280;42419;48.760;2.322;2023-03-14T05:08:34;98896.13;;;22.24;36.13
56518;BME280;42419;48.760;2.322;2023-03-14T05:10:59;98888.09;;;22.13;35.93
56518;BME280;42419;48.760;2.322;2023-03-14T05:13:25;98896.84;;;22.15;36.04
56518;BME280;42419;48.760;2.322;2023-03-14T05:15:50;98937.19;;;22.24;36.30
56518;BME280;42419;48.760;2.322;2023-03-14T05:18:16;98934.50;;;22.24;36.07
56518;BME280;42419;48.760;2.322;2023-03-14T05:20:42;98870.09;;;21.91;35.96
56518;BME280;42419;48.760;2.322;2023-03-14T05:23:10;98946.97;;;22.25;35.88
56518;BME280;42419;48.760;2.322;2023-03-14T05:25:35;98934.41;;;22.26;35.95
56518;BME280;42419;48.760;2.322;2023-03-14T05:28:01;98961.09;;;22.27;35.82
56518;BME280;42419;48.760;2.322;2023-03-14T05:30:26;98973.53;;;22.28;36.01
56518;BME280;42419;48.760;2.322;2023-03-14T05:32:53;98987.69;;;22.30;35.76
56518;BME280;42419;48.760;2.322;2023-03-14T05:35:19;98988.88;;;22.26;35.85
56518;BME280;42419;48.760;2.322;2023-03-14T05:37:44;98920.53;;;21.86;35.67
56518;BME280;42419;48.760;2.322;2023-03-14T05:40:10;98992.78;;;22.33;35.54
56518;BME280;42419;48.760;2.322;2023-03-14T05:42:35;98945.00;;;21.92;35.45
56518;BME280;42419;48.760;2.322;2023-03-14T05:45:01;99019.38;;;22.36;35.74
56518;BME280;42419;48.760;2.322;2023-03-14T05:47:26;99027.41;;;22.36;35.52
56518;BME280;42419;48.760;2.322;2023-03-14T05:49:51;99043.41;;;22.38;35.19
56518;BME280;42419;48.760;2.322;2023-03-14T05:52:17;99040.94;;;22.35;35.22
56518;BME280;42419;48.760;2.322;2023-03-14T05:54:42;99069.09;;;22.40;35.47
56518;BME280;42419;48.760;2.322;2023-03-14T05:57:07;99085.19;;;22.40;35.02
56518;BME280;42419;48.760;2.322;2023-03-14T05:59:33;99096.78;;;22.41;35.16
56518;BME280;42419;48.760;2.322;2023-03-14T06:01:58;99098.75;;;22.39;35.31
56518;BME280;42419;48.760;2.322;2023-03-14T06:04:24;99043.72;;;21.99;35.15
56518;BME280;42419;48.760;2.322;2023-03-14T06:06:50;99136.03;;;22.42;35.06
56518;BME280;42419;48.760;2.322;2023-03-14T06:09:15;99130.69;;;22.42;35.01
56518;BME280;42419;48.760;2.322;2023-03-14T06:11:41;99148.25;;;22.46;34.90
56518;BME280;42419;48.760;2.322;2023-03-14T06:14:06;99152.66;;;22.47;34.91
56518;BME280;42419;48.760;2.322;2023-03-14T06:16:31;99154.81;;;22.42;34.58
56518;BME280;42419;48.760;2.322;2023-03-14T06:18:57;99168.63;;;22.49;35.05
56518;BME280;42419;48.760;2.322;2023-03-14T06:21:22;99173.25;;;22.47;34.65
56518;BME280;42419;48.760;2.322;2023-03-14T06:23:48;99169.81;;;22.45;34.65
56518;BME280;42419;48.760;2.322;2023-03-14T06:26:13;99190.81;;;22.51;35.06
56518;BME280;42419;48.760;2.322;2023-03-14T06:28:38;99201.44;;;22.52;34.76
56518;BME280;42419;48.760;2.322;2023-03-14T06:31:04;99218.41;;;22.53;34.62
56518;BME280;42419;48.760;2.322;2023-03-14T06:33:30;99212.38;;;22.49;34.58
56518;BME280;42419;48.760;2.322;2023-03-14T06:35:55;99226.56;;;22.51;35.37
56518;BME280;42419;48.760;2.322;2023-03-14T06:38:21;99237.53;;;22.48;34.99
56518;BME280;42419;48.760;2.322;2023-03-14T06:40:46;99254.91;;;22.55;34.93
56518;BME280;42419;48.760;2.322;2023-03-14T06:43:11;99261.97;;;22.56;34.90
56518;BME280;42419;48.760;2.322;2023-03-14T06:45:37;99268.06;;;22.58;35.18
56518;BME280;42419;48.760;2.322;2023-03-14T06:48:02;99279.56;;;22.60;34.66
56518;BME280;42419;48.760;2.322;2023-03-14T06:50:28;99288.38;;;22.62;34.58
56518;BME280;42419;48.760;2.322;2023-03-14T06:52:53;99307.88;;;22.64;34.90
56518;BME280;42419;48.760;2.322;2023-03-14T06:55:18;99305.09;;;22.66;34.99
56518;BME280;42419;48.760;2.322;2023-03-14T06:57:44;99314.72;;;22.68;34.79
56518;BME280;42419;48.760;2.322;2023-03-14T07:00:10;99316.56;;;22.68;34.78
56518;BME280;42419;48.760;2.322;2023-03-14T07:02:36;99315.81;;;22.66;34.96
56518;BME280;42419;48.760;2.322;2023-03-14T07:05:02;99314.53;;;22.59;34.72
56518;BME280;42419;48.760;2.322;2023-03-14T07:07:27;99346.50;;;22.74;34.64
56518;BME280;42419;48.760;2.322;2023-03-14T07:09:52;99353.44;;;22.77;34.38
56518;BME280;42419;48.760;2.322;2023-03-14T07:12:18;99350.75;;;22.77;34.27
56518;BME280;42419;48.760;2.322;2023-03-14T07:14:43;99364.81;;;22.80;34.19
56518;BME280;42419;48.760;2.322;2023-03-14T07:17:09;99361.50;;;22.77;34.38
56518;BME280;42419;48.760;2.322;2023-03-14T07:19:34;99373.53;;;22.84;34.43
56518;BME280;42419;48.760;2.322;2023-03-14T07:21:59;99380.56;;;22.85;33.99
56518;BME280;42419;48.760;2.322;2023-03-14T07:24:24;99365.81;;;22.79;34.47
56518;BME280;42419;48.760;2.322;2023-03-14T07:26:50;99396.47;;;22.88;34.03
56518;BME280;42419;48.760;2.322;2023-03-14T07:29:15;99401.72;;;22.90;34.17
56518;BME280;42419;48.760;2.322;2023-03-14T07:31:40;99416.22;;;22.87;34.22
56518;BME280;42419;48.760;2.322;2023-03-14T07:34:06;99401.41;;;22.81;33.99
56518;BME280;42419;48.760;2.322;2023-03-14T07:36:31;99408.50;;;22.82;33.89
56518;BME280;42419;48.760;2.322;2023-03-14T07:38:57;99354.66;;;22.48;33.83
56518;BME280;42419;48.760;2.322;2023-03-14T07:41:22;99444.47;;;22.93;33.84
56518;BME280;42419;48.760;2.322;2023-03-14T07:43:48;99437.28;;;22.93;33.71
56518;BME280;42419;48.760;2.322;2023-03-14T07:46:13;99454.22;;;22.94;33.81
56518;BME280;42419;48.760;2.322;2023-03-14T07:48:39;99449.19;;;22.89;33.56
56518;BME280;42419;48.760;2.322;2023-03-14T07:51:05;99472.78;;;22.97;33.69
56518;BME280;42419;48.760;2.322;2023-03-14T07:53:31;99426.88;;;22.63;33.59
56518;BME280;42419;48.760;2.322;2023-03-14T07:55:56;99496.72;;;23.00;33.38
56518;BME280;42419;48.760;2.322;2023-03-14T07:58:21;99494.16;;;22.98;33.57
56518;BME280;42419;48.760;2.322;2023-03-14T08:00:47;99510.91;;;23.02;33.53
56518;BME280;42419;48.760;2.322;2023-03-14T08:03:13;99493.84;;;22.90;32.77
56518;BME280;42419;48.760;2.322;2023-03-14T08:05:38;99451.25;;;22.60;33.21
56518;BME280;42419;48.760;2.322;2023-03-14T08:08:04;99529.47;;;23.05;33.20
56518;BME280;42419;48.760;2.322;2023-03-14T08:10:30;99527.56;;;23.07;33.29
56518;BME280;42419;48.760;2.322;2023-03-14T08:12:57;99535.47;;;23.08;32.80
56518;BME280;42419;48.760;2.322;2023-03-14T08:15:24;99546.97;;;23.10;33.34
56518;BME280;42419;48.760;2.322;2023-03-14T08:17:50;99542.47;;;23.11;32.91
56518;BME280;42419;48.760;2.322;2023-03-14T08:20:28;99548.59;;;23.13;32.74
56518;BME280;42419;48.760;2.322;2023-03-14T08:22:56;99479.16;;;22.70;33.08
56518;BME280;42419;48.760;2.322;2023-03-14T08:25:22;99547.19;;;23.20;33.21
56518;BME280;42419;48.760;2.322;2023-03-14T08:27:47;99576.84;;;23.31;32.84
56518;BME280;42419;48.760;2.322;2023-03-14T08:30:15;99572.88;;;23.37;32.36
56518;BME280;42419;48.760;2.322;2023-03-14T08:32:40;99572.00;;;23.36;32.56
56518;BME280;42419;48.760;2.322;2023-03-14T08:35:06;99576.09;;;23.42;32.32
56518;BME280;42419;48.760;2.322;2023-03-14T08:37:35;99512.19;;;22.96;32.72
56518;BME280;42419;48.760;2.322;2023-03-14T08:40:01;99591.34;;;23.41;32.33
56518;BME280;42419;48.760;2.322;2023-03-14T08:42:30;99601.13;;;23.42;32.40
56518;BME280;42419;48.760;2.322;2023-03-14T08:44:55;99613.06;;;23.38;32.65
56518;BME280;42419;48.760;2.322;2023-03-14T08:47:20;99595.09;;;23.26;32.41
56518;BME280;42419;48.760;2.322;2023-03-14T08:49:46;99614.22;;;23.34;32.38
56518;BME280;42419;48.760;2.322;2023-03-14T08:52:11;99601.13;;;23.29;32.18
56518;BME280;42419;48.760;2.322;2023-03-14T08:54:36;99612.72;;;23.30;32.50
56518;BME280;42419;48.760;2.322;2023-03-14T08:57:02;99612.94;;;23.27;32.41
56518;BME280;42419;48.760;2.322;2023-03-14T08:59:27;99602.81;;;23.18;32.62
56518;BME280;42419;48.760;2.322;2023-03-14T09:01:52;99613.03;;;23.25;32.40
56518;BME280;42419;48.760;2.322;2023-03-14T09:04:19;99629.28;;;23.24;32.80
56518;BME280;42419;48.760;2.322;2023-03-14T09:06:45;99638.31;;;23.23;32.63
56518;BME280;42419;48.760;2.322;2023-03-14T09:09:10;99639.47;;;23.19;32.65
56518;BME280;42419;48.760;2.322;2023-03-14T09:11:35;99642.16;;;23.19;32.84
56518;BME280;42419;48.760;2.322;2023-03-14T09:28:22;99675.22;;;23.07;32.79
56518;BME280;42419;48.760;2.322;2023-03-14T09:30:47;99677.38;;;23.02;32.73
56518;BME280;42419;48.760;2.322;2023-03-14T09:33:12;99670.25;;;22.88;32.65
56518;BME280;42419;48.760;2.322;2023-03-14T09:35:38;99689.94;;;23.01;32.65
56518;BME280;42419;48.760;2.322;2023-03-14T09:38:03;99715.91;;;23.01;32.88
56518;BME280;42419;48.760;2.322;2023-03-14T09:40:33;99707.84;;;23.01;32.36
56518;BME280;42419;48.760;2.322;2023-03-14T09:42:59;99723.97;;;23.01;32.65
56518;BME280;42419;48.760;2.322;2023-03-14T09:45:27;99647.09;;;22.60;32.66
56518;BME280;42419;48.760;2.322;2023-03-14T09:47:55;99729.72;;;22.95;32.41
56518;BME280;42419;48.760;2.322;2023-03-14T09:50:22;99738.91;;;23.05;32.71
56518;BME280;42419;48.760;2.322;2023-03-14T09:52:51;99750.41;;;23.07;32.63
56518;BME280;42419;48.760;2.322;2023-03-14T09:55:21;99751.25;;;23.07;32.65
56518;BME280;42419;48.760;2.322;2023-03-14T09:57:48;99764.56;;;23.09;32.99
56518;BME280;42419;48.760;2.322;2023-03-14T10:00:18;99768.97;;;23.10;32.91
56518;BME280;42419;48.760;2.322;2023-03-14T10:05:31;99769.53;;;23.15;33.35
56518;BME280;42419;48.760;2.322;2023-03-14T10:07:57;99782.84;;;23.16;33.37
56518;BME280;42419;48.760;2.322;2023-03-14T10:10:24;99777.28;;;23.19;33.49
56518;BME280;42419;48.760;2.322;2023-03-14T10:12:57;99787.06;;;23.20;33.40
56518;BME280;42419;48.760;2.322;2023-03-14T10:15:27;99801.28;;;23.22;33.36
56518;BME280;42419;48.760;2.322;2023-03-14T10:17:53;99837.91;;;23.23;33.43
56518;BME280;42419;48.760;2.322;2023-03-14T10:20:36;99857.56;;;23.24;32.94
56518;BME280;42419;48.760;2.322;2023-03-14T10:25:40;99850.66;;;23.20;32.51
56518;BME280;42419;48.760;2.322;2023-03-14T10:28:29;99845.28;;;23.20;32.46
56518;BME280;42419;48.760;2.322;2023-03-14T10:30:56;99838.00;;;23.22;32.93
56518;BME280;42419;48.760;2.322;2023-03-14T10:33:24;99855.16;;;23.19;33.17
56518;BME280;42419;48.760;2.322;2023-03-14T10:36:05;99855.75;;;23.24;33.19
56518;BME280;42419;48.760;2.322;2023-03-14T10:38:36;99784.47;;;22.79;33.36
56518;BME280;42419;48.760;2.322;2023-03-14T10:41:03;99865.13;;;23.32;33.30
56518;BME280;42419;48.760;2.322;2023-03-14T10:43:40;99871.25;;;23.34;33.44
56518;BME280;42419;48.760;2.322;2023-03-14T10:46:12;99861.16;;;23.37;32.96
56518;BME280;42419;48.760;2.322;2023-03-14T10:48:39;99798.28;;;23.00;33.08
56518;BME280;42419;48.760;2.322;2023-03-14T10:51:12;99871.06;;;23.49;33.10
56518;BME280;42419;48.760;2.322;2023-03-14T10:56:18;99903.97;;;23.53;33.20
56518;BME280;42419;48.760;2.322;2023-03-14T10:58:52;99900.09;;;23.57;32.94
56518;BME280;42419;48.760;2.322;2023-03-14T11:09:41;99921.28;;;23.61;32.55
56518;BME280;42419;48.760;2.322;2023-03-14T11:14:58;99923.69;;;23.66;32.50
56518;BME280;42419;48.760;2.322;2023-03-14T11:21:08;99931.25;;;23.73;32.58
56518;BME280;42419;48.760;2.322;2023-03-14T11:26:36;99934.56;;;23.77;32.72
56518;BME280;42419;48.760;2.322;2023-03-14T11:29:23;99933.31;;;23.83;32.80
56518;BME280;42419;48.760;2.322;2023-03-14T11:31:50;99934.00;;;23.86;32.37
56518;BME280;42419;48.760;2.322;2023-03-14T11:34:40;99923.00;;;23.89;32.72
56518;BME280;42419;48.760;2.322;2023-03-14T11:37:39;99942.38;;;23.94;32.50
56518;BME280;42419;48.760;2.322;2023-03-14T11:40:23;99932.38;;;23.96;32.55
56518;BME280;42419;48.760;2.322;2023-03-14T11:43:03;99932.28;;;23.98;32.55
56518;BME280;42419;48.760;2.322;2023-03-14T11:45:34;99937.44;;;24.01;32.52
56518;BME280;42419;48.760;2.322;2023-03-14T11:48:13;99938.19;;;24.03;32.36
56518;BME280;42419;48.760;2.322;2023-03-14T11:50:42;99878.09;;;23.64;32.13
56518;BME280;42419;48.760;2.322;2023-03-14T11:55:44;99911.63;;;23.98;32.10
56518;BME280;42419;48.760;2.322;2023-03-14T11:58:29;99950.16;;;24.11;32.21
56518;BME280;42419;48.760;2.322;2023-03-14T12:00:57;99920.78;;;23.96;32.62
56518;BME280;42419;48.760;2.322;2023-03-14T12:16:07;99970.25;;;24.06;31.89
56518;BME280;42419;48.760;2.322;2023-03-14T12:18:37;99978.53;;;24.03;32.50
56518;BME280;42419;48.760;2.322;2023-03-14T12:21:09;99907.31;;;23.56;32.18
56518;BME280;42419;48.760;2.322;2023-03-14T12:23:55;99977.03;;;23.99;31.93
56518;BME280;42419;48.760;2.322;2023-03-14T12:26:25;99978.75;;;24.00;32.35
56518;BME280;42419;48.760;2.322;2023-03-14T12:29:09;99978.94;;;23.97;32.29
56518;BME280;42419;48.760;2.322;2023-03-14T12:31:40;99964.84;;;23.93;32.12
56518;BME280;42419;48.760;2.322;2023-03-14T12:39:45;99972.00;;;23.80;26.47
56518;BME280;42419;48.760;2.322;2023-03-14T12:44:47;99944.09;;;23.29;22.50
56518;BME280;42419;48.760;2.322;2023-03-14T12:49:41;99983.50;;;23.14;21.68
56518;BME280;42419;48.760;2.322;2023-03-14T12:52:15;99958.13;;;22.77;21.05
56518;BME280;42419;48.760;2.322;2023-03-14T12:55:05;99981.91;;;22.83;21.16
56518;BME280;42419;48.760;2.322;2023-03-14T12:57:55;99988.91;;;22.58;21.22
56518;BME280;42419;48.760;2.322;2023-03-14T13:00:35;99988.34;;;22.37;21.20
56518;BME280;42419;48.760;2.322;2023-03-14T13:03:21;99978.78;;;22.33;21.64
56518;BME280;42419;48.760;2.322;2023-03-14T13:06:01;99995.75;;;22.33;21.66
56518;BME280;42419;48.760;2.322;2023-03-14T13:10:57;99970.94;;;22.00;22.17
56518;BME280;42419;48.760;2.322;2023-03-14T13:13:25;99990.06;;;21.78;22.41
56518;BME280;42419;48.760;2.322;2023-03-14T13:15:56;100015.66;;;21.84;22.77
56518;BME280;42419;48.760;2.322;2023-03-14T13:21:03;100020.72;;;21.43;22.88
56518;BME280;42419;48.760;2.322;2023-03-14T13:23:33;100010.78;;;21.45;23.36
56518;BME280;42419;48.760;2.322;2023-03-14T13:26:01;100025.81;;;21.32;23.59
56518;BME280;42419;48.760;2.322;2023-03-14T13:28:27;100014.38;;;21.13;23.12
56518;BME280;42419;48.760;2.322;2023-03-14T13:31:02;100013.06;;;21.04;23.33
56518;BME280;42419;48.760;2.322;2023-03-14T13:33:28;100034.97;;;20.95;23.92
56518;BME280;42419;48.760;2.322;2023-03-14T13:35:56;100007.09;;;20.83;23.86
56518;BME280;42419;48.760;2.322;2023-03-14T13:38:24;100004.94;;;20.90;24.42
56518;BME280;42419;48.760;2.322;2023-03-14T13:40:51;100030.91;;;20.88;24.26
56518;BME280;42419;48.760;2.322;2023-03-14T13:43:28;100036.59;;;20.82;24.53
56518;BME280;42419;48.760;2.322;2023-03-14T13:46:01;100052.56;;;20.66;24.63
56518;BME280;42419;48.760;2.322;2023-03-14T13:48:30;100043.34;;;20.56;24.92
56518;BME280;42419;48.760;2.322;2023-03-14T13:51:00;100106.72;;;20.54;25.23
56518;BME280;42419;48.760;2.322;2023-03-14T13:53:26;100116.16;;;20.61;26.61
56518;BME280;42419;48.760;2.322;2023-03-14T13:55:52;100106.31;;;20.61;27.41
56518;BME280;42419;48.760;2.322;2023-03-14T13:58:23;100100.91;;;20.63;27.88
56518;BME280;42419;48.760;2.322;2023-03-14T14:01:02;100102.31;;;20.70;28.36
56518;BME280;42419;48.760;2.322;2023-03-14T14:03:30;100102.78;;;20.78;28.61
56518;BME280;42419;48.760;2.322;2023-03-14T14:05:57;100094.41;;;20.84;28.99
56518;BME280;42419;48.760;2.322;2023-03-14T14:08:25;100108.63;;;21.02;28.99
56518;BME280;42419;48.760;2.322;2023-03-14T14:10:55;100098.06;;;21.16;29.00
56518;BME280;42419;48.760;2.322;2023-03-14T14:13:24;100105.53;;;21.27;29.17
56518;BME280;42419;48.760;2.322;2023-03-14T14:15:52;100045.69;;;20.95;29.06
56518;BME280;42419;48.760;2.322;2023-03-14T14:18:21;100127.69;;;21.46;28.78
56518;BME280;42419;48.760;2.322;2023-03-14T14:20:47;100120.16;;;21.52;28.90
56518;BME280;42419;48.760;2.322;2023-03-14T14:23:16;100053.00;;;21.24;28.88
56518;BME280;42419;48.760;2.322;2023-03-14T14:25:45;100043.75;;;21.14;28.71